Time;durP1;ratioP1;P1;durP2;ratioP2;P2;SDS_P1;SDS_P2;PMS_P1;PMS_P2;Temp;Humidity;BMP_temperature;BMP_pressure;BME280_temperature;BME280_humidity;BME280_pressure;Samples;Min_cycle;Max_cycle;Signal;HPM_P1;HPM_P2
2022/03/24 00:00:29;;;;;;;26.17;19.37;;;5.10;99.90;;;;;;4980576;28;20464;-59
2022/03/24 00:02:56;;;;;;;26.60;19.90;;;5.10;99.90;;;;;;4980674;28;21090;-59
2022/03/24 00:05:23;;;;;;;28.90;19.33;;;5.00;99.90;;;;;;4979615;28;20458;-59
2022/03/24 00:07:55;;;;;;;28.77;20.53;;;5.10;99.90;;;;;;4980048;28;20466;-59
2022/03/24 00:10:37;;;;;;;25.20;18.47;;;5.00;99.90;;;;;;4980109;28;20489;-59
2022/03/24 00:13:04;;;;;;;30.47;20.27;;;5.00;99.90;;;;;;4976624;28;20470;-59
2022/03/24 00:15:31;;;;;;;28.47;20.57;;;4.90;99.90;;;;;;4979571;28;20490;-59
2022/03/24 00:17:58;;;;;;;31.37;19.40;;;4.80;99.90;;;;;;4979846;28;20472;-59
2022/03/24 00:20:28;;;;;;;26.43;19.97;;;4.80;99.90;;;;;;4979956;28;20961;-59
2022/03/24 00:23:05;;;;;;;27.70;18.90;;;4.70;99.90;;;;;;4979838;28;20471;-59
2022/03/24 00:25:35;;;;;;;23.97;17.83;;;4.70;99.90;;;;;;4979130;28;20458;-59
2022/03/24 00:28:05;;;;;;;30.77;22.47;;;4.70;99.90;;;;;;4979912;28;20466;-59
2022/03/24 00:30:37;;;;;;;26.80;20.60;;;4.70;99.90;;;;;;4979739;28;20470;-58
2022/03/24 00:33:04;;;;;;;31.10;20.80;;;4.70;99.90;;;;;;4979637;28;20520;-59
2022/03/24 00:35:32;;;;;;;27.60;21.10;;;4.60;99.90;;;;;;4979025;28;20493;-59
2022/03/24 00:38:06;;;;;;;27.13;20.30;;;4.60;99.90;;;;;;4979922;28;20474;-59
2022/03/24 00:40:36;;;;;;;31.67;21.37;;;4.60;99.90;;;;;;4979592;28;20466;-59
2022/03/24 00:43:05;;;;;;;25.57;19.43;;;4.60;99.90;;;;;;4980463;28;20470;-58
2022/03/24 00:45:32;;;;;;;30.90;21.93;;;4.60;99.90;;;;;;4979281;28;20516;-59
2022/03/24 00:48:06;;;;;;;27.70;21.60;;;4.50;99.90;;;;;;4980106;28;20466;-59
2022/03/24 00:50:33;;;;;;;27.73;20.27;;;4.50;99.90;;;;;;4979134;28;20466;-59
2022/03/24 00:53:06;;;;;;;26.27;20.33;;;4.40;99.90;;;;;;4979707;28;20529;-59
2022/03/24 00:55:36;;;;;;;28.80;21.17;;;4.30;99.90;;;;;;4975704;28;20498;-59
2022/03/24 00:58:03;;;;;;;26.30;19.80;;;4.20;1.00;;;;;;4979830;28;20824;-59
2022/03/24 01:00:38;;;;;;;27.80;21.10;;;4.20;1.00;;;;;;4978762;28;20549;-59
2022/03/24 01:03:06;;;;;;;24.97;19.53;;;4.20;1.00;;;;;;4979398;28;20473;-59
2022/03/24 01:05:37;;;;;;;25.33;20.10;;;4.20;1.00;;;;;;4979909;28;20789;-60
2022/03/24 01:08:16;;;;;;;29.03;21.17;;;4.10;1.00;;;;;;4979593;28;20903;-59
2022/03/24 01:10:47;;;;;;;25.43;19.60;;;4.00;1.00;;;;;;4979425;28;20514;-59
2022/03/24 01:13:21;;;;;;;33.03;21.13;;;4.00;1.00;;;;;;4978649;28;20545;-60
2022/03/24 01:15:52;;;;;;;27.70;19.30;;;4.00;1.00;;;;;;4979724;28;20969;-59
2022/03/24 01:18:23;;;;;;;26.37;20.50;;;4.00;1.00;;;;;;4979451;28;20465;-59
2022/03/24 01:20:56;;;;;;;29.43;22.23;;;3.90;1.00;;;;;;4979188;28;20770;-60
2022/03/24 01:23:30;;;;;;;26.50;21.27;;;4.00;1.00;;;;;;4979730;28;20528;-59
2022/03/24 01:25:58;;;;;;;31.53;20.27;;;3.90;1.00;;;;;;4979563;28;20465;-60
2022/03/24 01:28:33;;;;;;;32.00;20.80;;;3.90;1.00;;;;;;4978900;28;20470;-59
2022/03/24 01:31:00;;;;;;;26.40;19.90;;;3.90;1.00;;;;;;4979586;28;20907;-59
2022/03/24 01:33:39;;;;;;;26.50;19.77;;;4.00;1.00;;;;;;4979823;28;20516;-59
2022/03/24 01:36:10;;;;;;;28.30;20.17;;;3.90;1.00;;;;;;4979867;28;20583;-59
2022/03/24 01:38:38;;;;;;;32.17;21.43;;;3.90;1.00;;;;;;4978813;28;20474;-59
2022/03/24 01:41:08;;;;;;;31.70;20.50;;;3.90;1.00;;;;;;4979016;28;20493;-59
2022/03/24 01:43:36;;;;;;;31.07;21.60;;;3.80;1.00;;;;;;4979147;28;20516;-59
2022/03/24 01:46:07;;;;;;;29.23;21.20;;;3.80;1.00;;;;;;4979784;28;20458;-59
2022/03/24 01:48:42;;;;;;;27.33;21.50;;;3.70;1.00;;;;;;4978901;28;20469;-59
2022/03/24 01:51:12;;;;;;;28.90;21.90;;;3.60;1.00;;;;;;4979811;28;20465;-59
2022/03/24 01:53:46;;;;;;;29.67;23.67;;;3.70;1.00;;;;;;4979265;28;20473;-59
2022/03/24 01:56:16;;;;;;;30.83;21.77;;;3.70;1.00;;;;;;4975818;28;20601;-59
2022/03/24 01:58:47;;;;;;;31.43;21.40;;;3.60;1.00;;;;;;4978671;28;20474;-59
2022/03/24 02:01:29;;;;;;;28.40;22.80;;;3.60;1.00;;;;;;4979424;28;20458;-60
2022/03/24 02:03:58;;;;;;;29.07;22.60;;;3.50;1.00;;;;;;4960166;29;20462;-59
2022/03/24 02:06:25;;;;;;;29.27;21.13;;;3.50;1.00;;;;;;4960537;28;20467;-60
2022/03/24 02:08:56;;;;;;;29.57;22.63;;;3.50;1.00;;;;;;4972642;28;20465;-59
2022/03/24 02:11:25;;;;;;;30.67;22.20;;;3.40;1.00;;;;;;4982539;28;20461;-59
2022/03/24 02:13:54;;;;;;;33.53;23.60;;;3.40;1.00;;;;;;4982861;28;20461;-59
2022/03/24 02:16:26;;;;;;;33.27;23.77;;;3.30;1.00;;;;;;4982775;28;20953;-59
2022/03/24 02:18:59;;;;;;;33.53;22.93;;;3.30;1.00;;;;;;4982119;28;20470;-59
2022/03/24 02:21:26;;;;;;;34.57;23.27;;;3.30;1.00;;;;;;4983468;28;20480;-58
2022/03/24 02:24:00;;;;;;;33.70;21.93;;;3.30;1.00;;;;;;4982726;28;20465;-60
2022/03/24 02:26:27;;;;;;;31.40;24.20;;;3.30;1.00;;;;;;4982485;28;20465;-59
2022/03/24 02:28:55;;;;;;;33.10;21.83;;;3.20;1.00;;;;;;4981886;28;20470;-60
2022/03/24 02:31:22;;;;;;;34.00;23.87;;;3.20;1.00;;;;;;4982728;28;20462;-59
2022/03/24 02:34:37;;;;;;;32.83;23.07;;;3.10;1.00;;;;;;4981796;28;20473;-59
2022/03/24 02:36:38;;;;;;;29.53;22.27;;;3.10;1.00;;;;;;4982334;28;20490;-59
2022/03/24 02:39:09;;;;;;;28.43;21.67;;;3.00;1.00;;;;;;4982409;28;20537;-59
2022/03/24 02:41:51;;;;;;;32.10;21.90;;;3.00;1.00;;;;;;4982987;28;20496;-60
2022/03/24 02:44:19;;;;;;;31.27;21.03;;;2.90;1.00;;;;;;4982695;28;20465;-59
2022/03/24 02:47:38;;;;;;;31.90;21.43;;;2.90;1.00;;;;;;4983039;28;20564;-60
2022/03/24 02:50:06;;;;;;;28.03;21.73;;;2.90;1.00;;;;;;4982673;28;20466;-60
2022/03/24 02:52:36;;;;;;;33.10;21.30;;;2.90;1.00;;;;;;4982706;28;20444;-60
2022/03/24 02:55:14;;;;;;;25.57;21.50;;;2.90;1.00;;;;;;4983182;28;20557;-60
2022/03/24 02:57:50;;;;;;;28.20;21.43;;;2.90;1.00;;;;;;4979351;28;20516;-59
2022/03/24 03:00:17;;;;;;;33.60;22.20;;;3.00;1.00;;;;;;4982280;28;20527;-59
2022/03/24 03:02:44;;;;;;;28.20;21.43;;;3.00;1.00;;;;;;4982481;28;20555;-60
2022/03/24 03:05:12;;;;;;;34.83;23.03;;;3.00;1.00;;;;;;4982383;28;20454;-59
2022/03/24 03:07:40;;;;;;;34.20;23.77;;;3.00;1.00;;;;;;4982728;28;20461;-60
2022/03/24 03:10:12;;;;;;;34.90;24.77;;;3.00;1.00;;;;;;4982013;28;20517;-59
2022/03/24 03:12:39;;;;;;;35.50;23.57;;;2.90;1.00;;;;;;4982069;28;20466;-59
2022/03/24 03:15:09;;;;;;;35.13;23.73;;;2.90;1.00;;;;;;4982107;28;20496;-60
2022/03/24 03:17:36;;;;;;;32.83;23.33;;;2.90;1.00;;;;;;4981997;28;20527;-60
2022/03/24 03:20:03;;;;;;;32.37;23.90;;;2.90;1.00;;;;;;4982030;28;20472;-60
2022/03/24 03:22:34;;;;;;;35.73;24.77;;;2.80;1.00;;;;;;4981342;28;20473;-60
2022/03/24 03:25:09;;;;;;;32.37;23.20;;;2.80;1.00;;;;;;4982274;28;20521;-60
2022/03/24 03:27:40;;;;;;;30.10;23.37;;;2.70;1.00;;;;;;4982566;28;20817;-59
2022/03/24 03:30:09;;;;;;;38.33;24.47;;;2.70;1.00;;;;;;4981953;28;20494;-60
2022/03/24 03:32:54;;;;;;;29.07;21.93;;;2.60;1.00;;;;;;4981735;28;20474;-59
2022/03/24 03:35:23;;;;;;;35.97;24.00;;;2.60;1.00;;;;;;4969640;28;20596;-59
2022/03/24 03:37:50;;;;;;;28.10;21.17;;;2.50;1.00;;;;;;4981712;28;20851;-59
2022/03/24 03:40:23;;;;;;;36.00;23.50;;;2.50;1.00;;;;;;4981690;28;20810;-59
2022/03/24 03:42:57;;;;;;;35.40;24.37;;;2.50;1.00;;;;;;4981809;28;20528;-60
2022/03/24 03:45:28;;;;;;;34.63;24.60;;;2.50;1.00;;;;;;4982258;28;20468;-60
2022/03/24 03:47:58;;;;;;;32.87;22.50;;;2.40;1.00;;;;;;4981871;28;20571;-60
2022/03/24 03:50:31;;;;;;;31.40;21.00;;;2.40;1.00;;;;;;4980855;28;20845;-59
2022/03/24 03:53:03;;;;;;;32.93;22.70;;;2.40;1.00;;;;;;4975072;28;20482;-60
2022/03/24 03:55:36;;;;;;;35.60;21.97;;;2.30;1.00;;;;;;4981023;28;20766;-60
2022/03/24 03:58:10;;;;;;;33.70;23.20;;;2.30;1.00;;;;;;4977964;28;20490;-60
2022/03/24 04:00:56;;;;;;;31.07;21.47;;;2.30;1.00;;;;;;4980495;28;20483;-60
2022/03/24 04:03:26;;;;;;;30.27;22.47;;;2.30;6.30;;;;;;4980087;28;20468;-60
2022/03/24 04:06:00;;;;;;;31.73;22.40;;;2.40;13.10;;;;;;4981145;28;20495;-60
2022/03/24 04:08:27;;;;;;;33.93;23.03;;;2.30;1.00;;;;;;4979824;28;20472;-59
2022/03/24 04:10:55;;;;;;;33.60;23.93;;;2.30;4.10;;;;;;4980831;28;20501;-59
2022/03/24 04:13:24;;;;;;;34.53;23.20;;;2.30;17.50;;;;;;4979950;28;20988;-60
2022/03/24 04:15:53;;;;;;;38.50;25.37;;;2.30;6.00;;;;;;4981052;28;20818;-60
2022/03/24 04:18:20;;;;;;;34.50;23.23;;;2.30;4.20;;;;;;4981315;28;20760;-60
2022/03/24 04:20:51;;;;;;;32.13;21.93;;;2.30;1.00;;;;;;4979843;28;20512;-60
2022/03/24 04:23:24;;;;;;;31.40;23.60;;;2.20;1.00;;;;;;4980979;28;20470;-60
2022/03/24 04:25:52;;;;;;;31.13;21.80;;;2.20;1.00;;;;;;4978504;28;20469;-59
2022/03/24 04:28:19;;;;;;;38.43;27.17;;;2.20;1.00;;;;;;4981174;28;20863;-60
2022/03/24 04:30:48;;;;;;;31.40;23.37;;;2.10;1.00;;;;;;4980451;28;20473;-59
2022/03/24 04:33:15;;;;;;;35.87;23.90;;;2.20;1.00;;;;;;4980811;28;20828;-59
2022/03/24 04:35:43;;;;;;;32.23;22.47;;;2.20;1.00;;;;;;4979796;28;20767;-60
2022/03/24 04:38:10;;;;;;;36.53;24.70;;;2.10;1.00;;;;;;4981056;28;20469;-60
2022/03/24 04:40:37;;;;;;;36.13;22.77;;;2.10;1.00;;;;;;4979915;28;20501;-60
2022/03/24 04:43:08;;;;;;;36.40;23.70;;;2.20;1.00;;;;;;4980187;28;20469;-60
2022/03/24 04:45:38;;;;;;;37.70;25.67;;;2.10;1.00;;;;;;4979790;28;20469;-60
2022/03/24 04:48:10;;;;;;;35.30;24.80;;;2.10;1.00;;;;;;4980596;28;20521;-60
2022/03/24 04:50:37;;;;;;;39.77;24.90;;;2.00;1.00;;;;;;4979910;28;20891;-60
2022/03/24 04:53:04;;;;;;;35.90;24.40;;;2.00;1.00;;;;;;4979611;28;20524;-61
2022/03/24 04:55:34;;;;;;;34.60;23.90;;;2.00;1.00;;;;;;4978892;28;20496;-60
2022/03/24 04:58:03;;;;;;;36.20;25.27;;;1.90;1.00;;;;;;4976708;28;20470;-60
2022/03/24 05:00:35;;;;;;;34.23;23.90;;;1.90;6.30;;;;;;4979308;28;20477;-60
2022/03/24 05:03:05;;;;;;;37.30;24.80;;;2.00;2.30;;;;;;4979685;28;20469;-60
2022/03/24 05:05:37;;;;;;;37.30;24.90;;;1.90;1.00;;;;;;4979205;28;20567;-60
2022/03/24 05:08:09;;;;;;;44.43;25.67;;;1.90;19.90;;;;;;4977284;28;20569;-60
2022/03/24 05:10:36;;;;;;;34.30;25.30;;;1.90;20.00;;;;;;4983152;28;20486;-60
2022/03/24 05:13:03;;;;;;;42.10;24.70;;;1.90;26.10;;;;;;4976385;28;20556;-60
2022/03/24 05:15:30;;;;;;;35.53;26.03;;;2.00;27.40;;;;;;4976107;28;20499;-60
2022/03/24 05:18:00;;;;;;;42.43;28.33;;;2.00;12.90;;;;;;4976625;28;20465;-60
2022/03/24 05:20:27;;;;;;;35.77;26.07;;;1.90;1.00;;;;;;4976640;28;20538;-60
2022/03/24 05:22:58;;;;;;;35.13;23.97;;;1.80;4.10;;;;;;4977431;28;20590;-60
2022/03/24 05:25:29;;;;;;;42.70;28.47;;;1.80;18.70;;;;;;4975194;28;21307;-59
2022/03/24 05:27:56;;;;;;;37.57;27.13;;;1.80;52.20;;;;;;4974163;28;20473;-60
2022/03/24 05:30:28;;;;;;;39.03;26.40;;;1.80;62.50;;;;;;4976498;28;20553;-59
2022/03/24 05:32:58;;;;;;;37.70;25.27;;;1.90;57.80;;;;;;4972946;28;20495;-61
2022/03/24 05:35:25;;;;;;;35.20;25.77;;;1.90;37.70;;;;;;4973895;28;20576;-61
2022/03/24 05:38:05;;;;;;;42.00;27.83;;;1.90;23.80;;;;;;4974433;28;20897;-61
2022/03/24 05:40:32;;;;;;;40.60;25.77;;;1.90;34.80;;;;;;4975602;28;20468;-61
2022/03/24 05:43:00;;;;;;;38.50;27.50;;;1.90;58.10;;;;;;4978929;28;20467;-61
2022/03/24 05:45:27;;;;;;;34.60;24.53;;;2.00;47.10;;;;;;4982228;28;20776;-60
2022/03/24 05:47:54;;;;;;;42.70;27.13;;;2.00;38.20;;;;;;4980421;28;20543;-61
2022/03/24 05:50:21;;;;;;;42.00;25.83;;;2.00;9.40;;;;;;4982138;28;20464;-61
2022/03/24 05:52:51;;;;;;;36.47;25.00;;;2.00;15.20;;;;;;4980470;28;20512;-61
2022/03/24 05:55:25;;;;;;;40.13;26.73;;;2.00;19.50;;;;;;4980080;28;20523;-61
2022/03/24 05:57:56;;;;;;;34.97;23.87;;;2.00;15.30;;;;;;4977114;28;20457;-61
2022/03/24 06:00:26;;;;;;;40.70;26.97;;;2.00;15.60;;;;;;4979222;28;20574;-61
2022/03/24 06:02:56;;;;;;;36.27;25.17;;;2.00;30.80;;;;;;4981220;28;20476;-61
2022/03/24 06:05:25;;;;;;;40.43;24.77;;;2.10;31.70;;;;;;4979410;28;20949;-61
2022/03/24 06:07:52;;;;;;;34.57;26.00;;;2.10;43.60;;;;;;4984972;28;20510;-61
2022/03/24 06:10:19;;;;;;;40.83;26.57;;;2.10;58.20;;;;;;4983892;28;21173;-61
2022/03/24 06:12:58;;;;;;;35.07;24.60;;;2.10;77.50;;;;;;4980258;28;20478;-60
2022/03/24 06:15:25;;;;;;;34.30;24.00;;;2.20;93.20;;;;;;4979916;28;20521;-60
2022/03/24 06:17:52;;;;;;;40.90;26.57;;;2.30;92.10;;;;;;4981356;28;20497;-61
2022/03/24 06:20:19;;;;;;;37.83;26.40;;;2.50;58.50;;;;;;4980342;28;20473;-60
2022/03/24 06:22:51;;;;;;;44.00;27.20;;;2.60;47.40;;;;;;4982787;28;20457;-59
2022/03/24 06:25:28;;;;;;;41.13;26.83;;;2.70;20.30;;;;;;4981799;28;20953;-60
2022/03/24 06:27:57;;;;;;;33.90;25.60;;;2.90;12.20;;;;;;4982466;28;20902;-60
2022/03/24 06:30:36;;;;;;;37.80;26.33;;;3.10;3.20;;;;;;4976190;28;20552;-60
2022/03/24 06:33:03;;;;;;;35.00;26.33;;;3.30;1.00;;;;;;4978049;28;20962;-60
2022/03/24 06:35:49;;;;;;;34.10;25.23;;;3.50;1.00;;;;;;4978816;28;20469;-60
2022/03/24 06:38:25;;;;;;;35.50;24.33;;;3.70;1.00;;;;;;4978278;28;20454;-59
2022/03/24 06:40:56;;;;;;;37.90;27.20;;;3.90;1.00;;;;;;4977921;28;20461;-60
2022/03/24 06:43:30;;;;;;;37.17;25.73;;;4.10;1.00;;;;;;4974137;28;20469;-60
2022/03/24 06:46:06;;;;;;;36.93;24.70;;;4.40;1.00;;;;;;4979232;28;20520;-60
2022/03/24 06:48:36;;;;;;;44.30;26.43;;;4.60;1.00;;;;;;4981716;28;20468;-60
2022/03/24 06:51:03;;;;;;;37.63;25.90;;;4.80;1.00;;;;;;4981727;28;20465;-60
2022/03/24 06:53:30;;;;;;;35.77;25.03;;;5.00;1.00;;;;;;4984605;28;20461;-61
2022/03/24 06:55:57;;;;;;;42.97;29.57;;;5.20;1.00;;;;;;4987788;28;20465;-60
2022/03/24 06:58:25;;;;;;;49.33;35.17;;;5.40;1.00;;;;;;4998098;28;20513;-60
2022/03/24 07:00:58;;;;;;;48.03;32.10;;;5.70;1.00;;;;;;4976576;28;20505;-61
2022/03/24 07:03:25;;;;;;;38.47;29.90;;;6.10;1.00;;;;;;4981965;28;20478;-61
2022/03/24 07:05:52;;;;;;;36.37;25.83;;;6.30;1.00;;;;;;4987820;28;20825;-60
2022/03/24 07:08:25;;;;;;;36.03;26.47;;;6.60;99.90;;;;;;4975731;28;20476;-60
2022/03/24 07:10:52;;;;;;;38.27;28.50;;;6.70;99.90;;;;;;4981958;28;20499;-59
2022/03/24 07:13:20;;;;;;;38.77;27.93;;;6.80;99.90;;;;;;4990428;28;20472;-61
2022/03/24 07:15:50;;;;;;;34.17;26.40;;;6.80;99.90;;;;;;4998727;28;20562;-60
2022/03/24 07:18:23;;;;;;;34.80;26.97;;;6.80;99.90;;;;;;4999432;28;20465;-59
2022/03/24 07:20:50;;;;;;;40.43;29.00;;;6.90;99.90;;;;;;4994448;28;20497;-61
2022/03/24 07:23:20;;;;;;;46.30;28.90;;;7.20;99.90;;;;;;4985868;28;20477;-61
2022/03/24 07:25:49;;;;;;;38.20;28.10;;;7.40;99.90;;;;;;4994310;28;20473;-61
2022/03/24 07:28:19;;;;;;;38.57;27.67;;;7.70;99.90;;;;;;4993796;28;20544;-61
2022/03/24 07:30:50;;;;;;;36.23;27.53;;;7.90;99.90;;;;;;4978487;28;20867;-60
2022/03/24 07:33:22;;;;;;;40.93;29.33;;;8.30;99.90;;;;;;4971864;28;20816;-61
2022/03/24 07:35:51;;;;;;;42.40;30.70;;;8.60;99.90;;;;;;4972662;28;20574;-60
2022/03/24 07:38:21;;;;;;;45.20;30.07;;;8.70;99.90;;;;;;4979635;28;20462;-60
2022/03/24 07:40:51;;;;;;;40.73;29.60;;;9.00;99.90;;;;;;4988409;28;20461;-61
2022/03/24 07:43:18;;;;;;;41.27;30.73;;;9.10;99.90;;;;;;4991509;28;20465;-61
2022/03/24 07:45:45;;;;;;;43.60;32.47;;;8.80;99.90;;;;;;4996571;28;20464;-60
2022/03/24 07:48:16;;;;;;;36.40;30.17;;;9.20;99.90;;;;;;4973587;28;20458;-61
2022/03/24 07:50:49;;;;;;;40.40;30.10;;;9.50;99.90;;;;;;4972914;28;20466;-61
2022/03/24 07:53:43;;;;;;;43.10;30.90;;;9.90;99.90;;;;;;4978827;28;20462;-61
2022/03/24 07:56:13;;;;;;;38.83;29.13;;;10.10;99.90;;;;;;4978983;28;20476;-61
2022/03/24 07:58:40;;;;;;;37.77;29.23;;;10.60;99.90;;;;;;4994696;28;20893;-61
2022/03/24 08:01:16;;;;;;;44.20;30.70;;;10.90;99.90;;;;;;4998578;28;20872;-61
2022/03/24 08:03:43;;;;;;;38.87;30.57;;;11.20;99.90;;;;;;4984537;28;20500;-61
2022/03/24 08:06:13;;;;;;;52.50;31.73;;;11.50;99.90;;;;;;4986104;28;20469;-61
2022/03/24 08:08:45;;;;;;;41.00;32.23;;;11.80;99.90;;;;;;4995191;28;20464;-61
2022/03/24 08:11:12;;;;;;;46.10;33.60;;;12.10;99.90;;;;;;4996909;28;20944;-61
2022/03/24 08:13:39;;;;;;;46.50;32.97;;;12.30;99.90;;;;;;4987878;28;20540;-61
2022/03/24 08:16:10;;;;;;;54.93;34.27;;;12.50;99.90;;;;;;4995965;28;20505;-61
2022/03/24 08:18:37;;;;;;;48.47;33.13;;;12.70;99.90;;;;;;4984057;28;20568;-60
2022/03/24 08:21:04;;;;;;;45.60;34.03;;;12.80;99.90;;;;;;4997914;28;20519;-60
2022/03/24 08:23:41;;;;;;;45.43;34.50;;;13.20;99.90;;;;;;4996902;28;20878;-61
2022/03/24 08:26:14;;;;;;;42.93;34.60;;;13.50;99.90;;;;;;4999008;28;20469;-60
2022/03/24 08:28:41;;;;;;;46.17;34.90;;;13.70;99.90;;;;;;4983533;28;20465;-60
2022/03/24 08:31:08;;;;;;;46.23;36.43;;;13.30;99.90;;;;;;4980468;28;20520;-61
2022/03/24 08:33:35;;;;;;;52.20;39.43;;;13.60;99.90;;;;;;4979960;28;20461;-60
2022/03/24 08:36:02;;;;;;;39.60;35.30;;;14.00;99.90;;;;;;4980813;28;20466;-61
2022/03/24 08:38:29;;;;;;;47.73;38.20;;;14.40;99.90;;;;;;4997172;28;20600;-61
2022/03/24 08:40:57;;;;;;;43.30;38.00;;;14.90;99.90;;;;;;4996389;28;20944;-60
2022/03/24 08:43:24;;;;;;;44.83;36.60;;;15.00;99.90;;;;;;4998751;28;20461;-61
2022/03/24 08:46:02;;;;;;;43.00;36.87;;;15.10;99.90;;;;;;4985230;28;20559;-61
2022/03/24 08:48:31;;;;;;;45.93;36.70;;;15.30;99.90;;;;;;4979151;28;20458;-61
2022/03/24 08:51:02;;;;;;;45.23;36.53;;;15.20;99.90;;;;;;4980979;28;20816;-61
2022/03/24 08:53:29;;;;;;;51.53;37.80;;;15.60;99.90;;;;;;4982266;28;20512;-60
2022/03/24 08:56:00;;;;;;;42.03;34.70;;;16.00;99.90;;;;;;4989897;28;20462;-61
2022/03/24 08:58:27;;;;;;;41.17;36.77;;;16.30;99.90;;;;;;4998017;28;20567;-61
2022/03/24 09:00:54;;;;;;;49.33;37.93;;;16.50;99.90;;;;;;4984685;28;20565;-60
2022/03/24 09:03:24;;;;;;;40.33;35.00;;;16.40;99.90;;;;;;4979827;28;20469;-60
2022/03/24 09:05:52;;;;;;;46.77;36.60;;;16.90;99.90;;;;;;4994004;28;20469;-61
2022/03/24 09:08:19;;;;;;;42.10;36.60;;;17.20;99.90;;;;;;4998237;28;20461;-61
2022/03/24 09:10:50;;;;;;;43.63;36.20;;;17.50;99.90;;;;;;4990229;28;20860;-61
2022/03/24 09:13:19;;;;;;;44.27;37.53;;;18.10;99.90;;;;;;4998030;28;20770;-61
2022/03/24 09:15:46;;;;;;;42.40;37.57;;;18.20;99.90;;;;;;4995764;28;20461;-61
2022/03/24 09:18:22;;;;;;;45.27;36.40;;;18.30;99.90;;;;;;4986212;28;20500;-59
2022/03/24 09:20:49;;;;;;;45.67;38.20;;;18.40;99.90;;;;;;4999709;28;20468;-60
2022/03/24 09:23:26;;;;;;;44.93;37.87;;;18.60;99.90;;;;;;5001696;28;20555;-60
2022/03/24 09:25:56;;;;;;;42.37;37.70;;;18.80;99.90;;;;;;5001071;28;20476;-61
2022/03/24 09:28:27;;;;;;;41.40;37.10;;;19.00;99.90;;;;;;4988738;28;20572;-61
2022/03/24 09:31:08;;;;;;;41.60;36.33;;;19.30;99.90;;;;;;4997807;28;20907;-60
2022/03/24 09:33:36;;;;;;;41.57;36.27;;;19.50;99.90;;;;;;4989407;28;20817;-61
2022/03/24 09:36:06;;;;;;;39.30;35.10;;;19.70;99.90;;;;;;5001076;28;20465;-62
2022/03/24 09:38:34;;;;;;;40.70;36.47;;;19.90;99.90;;;;;;4993127;28;20554;-61
2022/03/24 09:41:01;;;;;;;45.97;36.30;;;19.80;99.90;;;;;;4998805;28;20878;-60
2022/03/24 09:43:34;;;;;;;42.63;37.03;;;20.00;99.90;;;;;;4985904;28;20525;-61
2022/03/24 09:46:04;;;;;;;39.87;35.60;;;20.20;99.90;;;;;;4984073;28;20953;-59
2022/03/24 09:48:34;;;;;;;35.43;31.73;;;20.40;99.90;;;;;;4991884;28;20945;-61
2022/03/24 09:51:03;;;;;;;34.60;31.13;;;19.90;99.90;;;;;;4997772;28;20475;-60
2022/03/24 09:53:30;;;;;;;29.60;26.60;;;20.20;99.90;;;;;;4993203;28;20511;-61
2022/03/24 09:56:01;;;;;;;27.07;22.23;;;20.00;99.90;;;;;;5000840;28;20527;-61
2022/03/24 09:58:30;;;;;;;27.57;24.73;;;20.20;99.90;;;;;;4991655;28;20497;-60
2022/03/24 10:00:57;;;;;;;26.13;23.40;;;20.00;99.90;;;;;;4993974;28;20936;-61
2022/03/24 10:03:26;;;;;;;25.90;22.77;;;20.30;99.90;;;;;;4987328;28;20822;-61
2022/03/24 10:05:59;;;;;;;26.10;23.37;;;20.10;99.90;;;;;;4993967;28;20465;-61
2022/03/24 10:08:31;;;;;;;27.23;24.60;;;20.00;99.90;;;;;;4996258;28;20462;-61
2022/03/24 10:11:07;;;;;;;28.73;25.73;;;20.00;99.90;;;;;;4995051;28;20492;-61
2022/03/24 10:13:47;;;;;;;27.33;24.43;;;20.20;99.90;;;;;;4988455;28;20909;-61
2022/03/24 10:16:41;;;;;;;26.47;24.00;;;20.00;99.90;;;;;;4998515;28;20933;-61
2022/03/24 10:19:14;;;;;;;26.03;23.20;;;20.30;99.90;;;;;;4993761;28;20462;-61
2022/03/24 10:21:45;;;;;;;25.27;21.43;;;19.40;99.90;;;;;;4982677;28;20464;-61
2022/03/24 10:24:14;;;;;;;26.07;23.13;;;19.20;99.90;;;;;;4999999;28;20473;-61
2022/03/24 10:26:45;;;;;;;29.53;23.40;;;19.60;99.90;;;;;;5000398;28;20465;-61
2022/03/24 10:29:16;;;;;;;31.47;22.30;;;19.90;99.90;;;;;;4998852;28;20461;-61
2022/03/24 10:31:52;;;;;;;23.17;20.83;;;19.50;99.90;;;;;;4984298;28;20460;-61
2022/03/24 10:34:29;;;;;;;24.37;21.77;;;20.00;99.90;;;;;;4997299;28;20476;-60
2022/03/24 10:37:05;;;;;;;25.17;22.67;;;20.10;99.90;;;;;;5000600;28;20844;-61
2022/03/24 10:39:33;;;;;;;27.67;24.17;;;20.80;99.90;;;;;;5000087;28;20804;-60
2022/03/24 10:42:17;;;;;;;30.50;21.73;;;20.80;99.90;;;;;;4986413;28;20904;-61
2022/03/24 10:45:11;;;;;;;26.17;22.60;;;20.90;99.90;;;;;;4993314;28;20477;-60
2022/03/24 10:47:49;;;;;;;24.17;21.57;;;20.10;99.90;;;;;;4992708;28;20467;-61
2022/03/24 10:50:43;;;;;;;;;;;;;;;;;;;;;
2022/03/24 10:53:12;;;;;;;29.73;22.53;;;21.10;99.90;;;;;;4981474;28;20464;-60
2022/03/24 10:56:01;;;;;;;24.40;21.80;;;21.00;99.90;;;;;;4987545;28;20528;-61
2022/03/24 10:58:33;;;;;;;26.83;23.00;;;21.00;99.90;;;;;;4980314;28;20500;-60
2022/03/24 11:01:06;;;;;;;30.03;23.80;;;22.00;99.90;;;;;;4996224;28;20563;-60
2022/03/24 11:03:36;;;;;;;31.43;24.73;;;21.90;99.90;;;;;;4998697;28;20465;-61
2022/03/24 11:06:09;;;;;;;34.10;23.50;;;22.30;99.90;;;;;;4993031;28;20473;-61
2022/03/24 11:08:39;;;;;;;30.10;26.80;;;22.00;99.90;;;;;;4996879;28;20465;-60
2022/03/24 11:11:08;;;;;;;28.50;25.20;;;21.40;99.90;;;;;;4979353;28;20540;-60
2022/03/24 11:13:44;;;;;;;29.90;26.60;;;20.90;99.90;;;;;;4982736;28;20887;-59
2022/03/24 11:16:14;;;;;;;31.10;25.17;;;22.00;99.90;;;;;;4995699;28;20548;-60
2022/03/24 11:18:55;;;;;;;28.43;25.53;;;21.80;99.90;;;;;;4991675;28;20492;-61
2022/03/24 11:21:27;;;;;;;28.40;25.00;;;22.00;99.90;;;;;;4999011;28;20886;-61
2022/03/24 11:23:57;;;;;;;29.90;26.73;;;21.60;99.90;;;;;;4986999;28;20497;-60
2022/03/24 11:26:25;;;;;;;29.47;26.30;;;22.50;99.90;;;;;;4990999;28;20470;-61
2022/03/24 11:28:57;;;;;;;28.83;25.70;;;23.00;99.90;;;;;;4986027;28;20519;-61
2022/03/24 11:31:28;;;;;;;28.93;25.07;;;23.20;99.90;;;;;;4983577;28;20465;-61
2022/03/24 11:33:58;;;;;;;33.63;28.40;;;22.90;99.90;;;;;;4990200;28;20479;-60
2022/03/24 11:36:26;;;;;;;30.53;27.50;;;22.60;99.90;;;;;;4996129;28;20852;-59
2022/03/24 11:38:56;;;;;;;33.10;28.37;;;22.80;99.90;;;;;;4989796;28;20926;-62
2022/03/24 11:41:27;;;;;;;31.30;28.17;;;22.20;99.90;;;;;;4998049;28;20473;-62
2022/03/24 11:43:57;;;;;;;31.50;28.20;;;23.00;99.90;;;;;;4977693;28;20473;-61
2022/03/24 11:46:35;;;;;;;30.80;27.50;;;22.90;99.90;;;;;;4991640;28;20472;-61
2022/03/24 11:49:25;;;;;;;29.97;27.10;;;22.80;99.90;;;;;;4993444;28;20520;-61
2022/03/24 11:52:33;;;;;;;32.73;29.33;;;23.30;99.90;;;;;;4994430;28;20486;-61
2022/03/24 11:55:03;;;;;;;29.90;26.60;;;23.60;99.90;;;;;;4980064;28;20472;-61
2022/03/24 11:57:41;;;;;;;31.20;27.13;;;23.60;99.90;;;;;;4995194;28;20472;-61
2022/03/24 12:00:53;;;;;;;30.30;27.40;;;24.10;99.90;;;;;;4978627;28;20764;-61
2022/03/24 12:03:45;;;;;;;30.27;27.00;;;24.30;99.90;;;;;;4988741;28;20496;-61
2022/03/24 12:06:15;;;;;;;30.03;27.17;;;24.20;99.90;;;;;;4988568;28;20536;-61
2022/03/24 12:08:52;;;;;;;31.70;28.50;;;23.90;99.90;;;;;;4989165;28;20470;-61
2022/03/24 12:11:50;;;;;;;30.53;27.23;;;23.90;99.90;;;;;;4996252;28;20503;-61
2022/03/24 12:14:20;;;;;;;30.03;27.03;;;24.20;99.90;;;;;;4995806;28;20485;-61
2022/03/24 12:16:54;;;;;;;31.43;28.50;;;24.50;99.90;;;;;;4998228;28;20529;-61
2022/03/24 12:19:47;;;;;;;32.83;29.70;;;24.10;99.90;;;;;;4972919;28;20578;-61
2022/03/24 12:22:39;;;;;;;33.80;30.50;;;23.60;99.90;;;;;;4986147;28;20469;-61
2022/03/24 12:25:34;;;;;;;32.17;28.87;;;23.00;99.90;;;;;;4990489;28;20466;-61
2022/03/24 12:28:12;;;;;;;32.47;29.07;;;23.60;99.90;;;;;;4972079;28;20903;-60
2022/03/24 12:30:46;;;;;;;33.93;30.60;;;24.20;99.90;;;;;;4978888;28;20493;-60
2022/03/24 12:33:15;;;;;;;31.10;28.10;;;24.00;99.90;;;;;;4995912;28;20453;-60
2022/03/24 12:36:01;;;;;;;35.07;31.20;;;22.70;99.90;;;;;;4988813;28;20520;-60
2022/03/24 12:38:43;;;;;;;35.10;29.73;;;21.80;99.90;;;;;;4978870;28;20493;-59
2022/03/24 12:41:21;;;;;;;34.03;30.80;;;21.80;99.90;;;;;;4982863;28;20557;-60
2022/03/24 12:44:00;;;;;;;34.27;30.87;;;21.40;99.90;;;;;;4997111;28;20475;-60
2022/03/24 12:46:32;;;;;;;35.20;31.40;;;21.50;99.90;;;;;;4976345;28;20469;-59
2022/03/24 12:49:06;;;;;;;31.93;28.23;;;22.20;99.90;;;;;;4976629;28;20578;-60
2022/03/24 12:51:38;;;;;;;31.87;28.70;;;22.30;99.90;;;;;;4976852;28;20468;-60
2022/03/24 12:54:20;;;;;;;34.10;30.60;;;22.80;99.90;;;;;;4984743;28;20465;-60
2022/03/24 12:56:47;;;;;;;32.33;29.17;;;23.30;99.90;;;;;;4995200;28;20796;-60
2022/03/24 12:59:18;;;;;;;35.30;31.70;;;23.10;99.90;;;;;;4997350;28;20588;-60
2022/03/24 13:01:48;;;;;;;38.27;34.33;;;22.70;99.90;;;;;;4992767;28;20523;-60